Luis Munoz Marin International, PR

4:38 PM AST on December 21, 2014 (GMT -0400)
Santurce | Change Station
CLOSE
Current Station
Personal Weather Station
Location: San Juan, PR
Elevation: 33 ft
Nearby Weather Stations

Elev 33 ft 18.45 °N, 66.05 °W | Updated 5 seconds ago

Scattered Clouds
Scattered Clouds
83.3 °F
Feels Like 85 °F
N
3.1
Wind Variable Wind from East
Gusts 3.1 mph

Today
High -- | Low -- °F
--% Chance of Precip.
Yesterday
High -- | Low -- °F
Precip. -- in
6:51 AM 5:52 PM
Waning Crescent, 0% visible
Pressure 30.02 in
Visibility 10.0 miles
Clouds Few 2400 ft
Scattered Clouds 6000 ft
Heat Index 85 °F
Dew Point 66 °F
Humidity 56%
Rainfall 0.00 in
Snow Depth Not available.
UV 2 out of 12
Pollen Not available.
Air Quality Not available.
Flu Activity Not available.
METAR TJSJ 211956Z 08013KT 10SM FEW024 SCT060 27/19 A3002 RMK AO2 SLP165 T02720194

More Conditions Fewer Conditions

Pressure 30.02 in
Visibility 10.0 miles
Clouds Few 2400 ft
Scattered Clouds 6000 ft
Heat Index 85 °F
Dew Point 66 °F
Humidity 56%
Rainfall 0.00 in
Snow Depth Not available.
UV 2 out of 12
Pollen Not available.
Air Quality Not available.
Flu Activity Not available.
METAR TJSJ 211956Z 08013KT 10SM FEW024 SCT060 27/19 A3002 RMK AO2 SLP165 T02720194

More Conditions Fewer Conditions

10-Day Weather Forecast

Almanac

Astronomy

Dec. 21, 2014 Rise Set
Actual Time
Civil Twilight
Nautical Twilight
Astronomical Twilight
Moon
Length of Visible Light
Length of Day
Tomorrow will be .
, % of the Moon is Illuminated

Today's Extremes

State Highs State Lows

Community

WunderPhotos

Upload Photos

1,779,471 photos uploaded!

WunderBlogs® & News

Nearby

Air Quality

  Air Quality AQ Index Pollutant
Not available.

Snow Depth

Station Depth Elevation

Earthquake Activity

City Distance Mag. Time & Date
Minimum magnitude displayed is 2.5.

Coastal Water Temperatures

Place Temperature

Nearby Weather Stations